Bethesda, MD (20810)

5:06 PM EDT on September 20, 2014 (GMT -0400)
Somerset | Change Station
CLOSE
Current Station
Personal Weather Station
Location: Chevy Chase, MD
Elevation: 330 ft
Nearby Weather Stations

Elev 330 ft 38.97 °N, 77.09 °W | Updated 1 minute ago

Clear
Clear
79.7 °F
Feels Like 81 °F
N
3.0
Wind Variable Wind from SW
Gusts 5.0 mph

Today
High -- | Low -- °F
--% Chance of Precip.
Yesterday
High -- | Low -- °F
Precip. -- in
6:54 AM 7:08 PM
Waning Crescent, 10% visible
Pressure 30.12 in
Visibility 10.0 miles
Clouds Few 5500 ft
Scattered Clouds 25000 ft
Heat Index 81 °F
Dew Point 59 °F
Humidity 50%
Rainfall 0.00 in
Snow Depth Not available.
UV 3 out of 12
Pollen 4.10 out of 12
Air Quality Not available.
Flu Activity Not available.
METAR KDCA 201952Z 20006KT 10SM FEW055 SCT250 28/13 A3011 RMK AO2 SLP197 T02830133

More Conditions Fewer Conditions

Pressure 30.12 in
Visibility 10.0 miles
Clouds Few 5500 ft
Scattered Clouds 25000 ft
Heat Index 81 °F
Dew Point 59 °F
Humidity 50%
Rainfall 0.00 in
Snow Depth Not available.
UV 3 out of 12
Pollen 4.10 out of 12
Air Quality Not available.
Flu Activity Not available.
METAR KDCA 201952Z 20006KT 10SM FEW055 SCT250 28/13 A3011 RMK AO2 SLP197 T02830133

More Conditions Fewer Conditions

10-Day Weather Forecast

Almanac

Astronomy

Sep. 20, 2014 Rise Set
Actual Time 6:54 AM EDT 7:08 PM EDT
Civil Twilight 6:27 AM EDT 7:35 PM EDT
Nautical Twilight 5:56 AM EDT 8:06 PM EDT
Astronomical Twilight 5:24 AM EDT 8:38 PM EDT
Moon 3:32 AM EDT 5:09 PM EDT
Length of Visible Light 13h 07m
Length of Day
12h 14m
Tomorrow will be 2m 31s shorter.
Waning Crescent, 10% of the Moon is Illuminated
Today
Waning Crescent
Sep 24
New
Oct 1
First Quarter
Oct 8
Full
Oct 15
Last Quarter

Today's Extremes

State Highs State Lows

Community

WunderPhotos

Upload Photos

1,754,947 photos uploaded!

WunderBlogs® & News

Nearby

Snow Depth

Station Depth Elevation
No new snow has been reported.

Earthquake Activity

City Distance Mag. Time & Date
No recent earthquake activity has been reported nearby.
Minimum magnitude displayed is 2.5.

Coastal Water Temperatures

Place Temperature
Washington, DC 73.9 °F
Baltimore, MD 75.9 °F
Solomons Island, MD 78.1 °F

Nearby Weather Stations